Time;durP1;ratioP1;P1;durP2;ratioP2;P2;SDS_P1;SDS_P2;PMS_P1;PMS_P2;Temp;Humidity;BMP_temperature;BMP_pressure;BME280_temperature;BME280_humidity;BME280_pressure;Samples;Min_cycle;Max_cycle;Signal;HPM_P1;HPM_P2
2022/03/18 00:01:58;;;;;;;;;;;;;;;3.13;59.35;101625.16;4424109;32;19993;-87
2022/03/18 00:04:23;;;;;;;;;;;;;;;3.09;59.36;101619.06;4438518;32;20027;-87
2022/03/18 00:06:49;;;;;;;;;;;;;;;3.14;59.35;101622.63;4437558;32;20063;-86
2022/03/18 00:09:14;;;;;;;;;;;;;;;3.20;59.36;101622.78;4436875;32;20059;-87
2022/03/18 00:11:39;;;;;;;;;;;;;;;3.14;59.36;101624.31;4436874;32;21904;-86
2022/03/18 00:14:04;;;;;;;;;;;;;;;3.19;59.36;101625.31;4438684;32;20310;-86
2022/03/18 00:16:29;;;;;;;;;;;;;;;3.21;59.36;101627.09;4424438;32;20004;-85
2022/03/18 00:18:56;;;;;;;;;;;;;;;3.30;59.36;101622.19;4436843;32;20041;-87
2022/03/18 00:21:23;;;;;;;;;;;;;;;3.30;59.36;101629.03;4438167;32;19985;-86
2022/03/18 00:23:48;;;;;;;;;;;;;;;3.19;59.36;101623.63;4436952;32;20361;-86
2022/03/18 00:26:14;;;;;;;;;;;;;;;3.37;59.36;101634.44;4424267;32;20036;-86
2022/03/18 00:28:39;;;;;;;;;;;;;;;3.23;59.35;101634.84;4437180;32;20468;-87
2022/03/18 00:31:05;;;;;;;;;;;;;;;3.22;59.36;101630.53;4424531;32;19981;-87
2022/03/18 00:33:31;;;;;;;;;;;;;;;3.20;59.36;101643.37;4438604;32;20019;-85
2022/03/18 00:35:56;;;;;;;;;;;;;;;3.28;59.36;101643.56;4438617;32;20274;-86
2022/03/18 00:38:21;;;;;;;;;;;;;;;3.11;59.35;101640.53;4438518;32;20025;-86
2022/03/18 00:40:48;;;;;;;;;;;;;;;3.01;59.34;101643.66;4424495;32;19985;-86
2022/03/18 00:43:13;;;;;;;;;;;;;;;2.99;59.34;101645.31;4424332;32;20025;-86
2022/03/18 00:45:39;;;;;;;;;;;;;;;2.99;59.34;101646.19;4423942;32;20034;-87
2022/03/18 00:53:32;;;;;;;;;;;;;;;2.93;59.34;101640.88;4425323;32;20480;-84
2022/03/18 00:55:57;;;;;;;;;;;;;;;3.06;59.35;101642.09;4423316;32;20668;-85
2022/03/18 00:58:22;;;;;;;;;;;;;;;3.13;59.35;101645.75;4423613;32;20392;-85
2022/03/18 01:00:48;;;;;;;;;;;;;;;3.08;59.35;101643.91;4438280;32;19982;-83
2022/03/18 01:03:15;;;;;;;;;;;;;;;2.94;59.34;101654.63;4423208;32;20255;-84
2022/03/18 01:05:40;;;;;;;;;;;;;;;2.84;59.33;101643.19;4423501;32;20350;-84
2022/03/18 01:08:06;;;;;;;;;;;;;;;2.81;59.34;101653.38;4424243;32;19992;-84
2022/03/18 01:10:31;;;;;;;;;;;;;;;2.91;59.34;101654.53;4425498;32;20361;-88
2022/03/18 01:12:57;;;;;;;;;;;;;;;3.04;59.34;101654.03;4438541;32;20050;-87
2022/03/18 01:15:22;;;;;;;;;;;;;;;3.10;59.35;101656.81;4426055;32;19988;-88
2022/03/18 01:17:47;;;;;;;;;;;;;;;3.15;59.35;101647.53;4425995;32;20011;-88
2022/03/18 01:20:12;;;;;;;;;;;;;;;3.18;59.35;101650.19;4439563;32;19977;-88
2022/03/18 01:22:38;;;;;;;;;;;;;;;3.17;59.36;101652.72;4439489;32;24088;-88
2022/03/18 01:25:03;;;;;;;;;;;;;;;3.08;59.35;101655.91;4425647;32;19999;-87
2022/03/18 01:27:28;;;;;;;;;;;;;;;2.90;59.34;101655.34;4438273;32;20029;-88
2022/03/18 01:29:54;;;;;;;;;;;;;;;2.82;59.34;101651.66;4425201;32;20013;-88
2022/03/18 01:32:20;;;;;;;;;;;;;;;2.91;59.34;101649.38;4423246;32;20040;-87
2022/03/18 01:34:45;;;;;;;;;;;;;;;2.72;59.33;101648.81;4439404;32;19977;-86
2022/03/18 01:37:10;;;;;;;;;;;;;;;2.76;59.34;101660.94;4425218;32;20044;-86
2022/03/18 01:39:35;;;;;;;;;;;;;;;2.84;59.34;101660.28;4439583;32;20350;-87
2022/03/18 01:42:01;;;;;;;;;;;;;;;2.87;59.33;101657.84;4439331;32;20031;-87
2022/03/18 01:44:26;;;;;;;;;;;;;;;2.73;59.33;101658.28;4427086;32;20008;-87
2022/03/18 01:46:51;;;;;;;;;;;;;;;2.79;59.33;101657.59;4425762;32;20059;-87
2022/03/18 01:49:16;;;;;;;;;;;;;;;2.70;59.33;101663.34;4439042;32;22611;-87
2022/03/18 01:51:42;;;;;;;;;;;;;;;2.82;59.34;101667.09;4437609;32;20015;-87
2022/03/18 01:56:59;;;;;;;;;;;;;;;2.76;59.33;101673.81;4426561;32;19995;-87
2022/03/18 01:59:24;;;;;;;;;;;;;;;2.68;59.33;101676.97;4439411;32;19996;-86
2022/03/18 02:01:49;;;;;;;;;;;;;;;2.91;59.34;101675.97;4425225;32;20009;-87
2022/03/18 02:04:15;;;;;;;;;;;;;;;2.99;59.34;101671.06;4425088;32;19985;-86
2022/03/18 02:06:40;;;;;;;;;;;;;;;2.99;59.34;101671.91;4439109;32;20232;-87
2022/03/18 02:09:06;;;;;;;;;;;;;;;2.80;59.33;101679.03;4439235;32;20005;-86
2022/03/18 02:11:31;;;;;;;;;;;;;;;2.68;59.33;101675.28;4437845;32;20012;-87
2022/03/18 02:13:56;;;;;;;;;;;;;;;2.67;59.33;101673.53;4425065;32;20001;-86
2022/03/18 02:16:22;;;;;;;;;;;;;;;2.70;59.33;101678.78;4425588;32;20027;-86
2022/03/18 02:18:47;;;;;;;;;;;;;;;2.70;59.33;101678.78;4437747;32;19997;-86
2022/03/18 02:21:13;;;;;;;;;;;;;;;2.63;59.32;101682.00;4437587;32;19992;-87
2022/03/18 02:23:39;;;;;;;;;;;;;;;2.75;59.33;101684.91;4412305;32;19985;-87
2022/03/18 02:26:04;;;;;;;;;;;;;;;2.81;59.34;101691.06;4437756;32;20024;-87
2022/03/18 02:28:29;;;;;;;;;;;;;;;2.79;59.33;101696.16;4437808;32;19989;-88
2022/03/18 02:30:54;;;;;;;;;;;;;;;2.64;59.32;101698.28;4437800;32;19981;-87
2022/03/18 02:33:21;;;;;;;;;;;;;;;2.64;59.33;101699.16;4438955;32;19985;-87
2022/03/18 02:35:46;;;;;;;;;;;;;;;2.57;59.32;101698.91;4438932;32;19995;-88
2022/03/18 02:38:11;;;;;;;;;;;;;;;2.62;59.32;101702.50;4427199;32;20036;-87
2022/03/18 02:40:36;;;;;;;;;;;;;;;2.51;59.32;101706.41;4437683;32;20004;-86
2022/03/18 02:43:02;;;;;;;;;;;;;;;2.69;59.33;101705.31;4425166;32;20016;-87
2022/03/18 02:45:27;;;;;;;;;;;;;;;2.65;59.33;101712.88;4425231;32;20342;-87
2022/03/18 02:47:52;;;;;;;;;;;;;;;2.60;59.32;101719.56;4425032;32;19974;-87
2022/03/18 02:50:17;;;;;;;;;;;;;;;2.72;59.33;101718.25;4437656;32;20019;-87
2022/03/18 02:52:43;;;;;;;;;;;;;;;3.02;59.34;101709.72;4424975;32;19981;-87
2022/03/18 02:55:09;;;;;;;;;;;;;;;2.94;59.35;101714.66;4437675;32;19973;-87
2022/03/18 02:57:34;;;;;;;;;;;;;;;2.63;59.32;101717.97;4438731;32;19992;-88
2022/03/18 02:59:59;;;;;;;;;;;;;;;2.75;59.33;101723.50;4424881;32;19997;-88
2022/03/18 03:02:25;;;;;;;;;;;;;;;2.69;59.33;101722.44;4438313;32;30123;-87
2022/03/18 03:10:18;;;;;;;;;;;;;;;2.95;59.35;101720.66;4427034;32;20005;-86
2022/03/18 03:12:43;;;;;;;;;;;;;;;3.00;59.34;101734.53;4439104;32;19985;-87
2022/03/18 03:15:08;;;;;;;;;;;;;;;2.90;59.34;101735.09;4437234;32;20948;-87
2022/03/18 03:17:34;;;;;;;;;;;;;;;3.08;59.35;101739.09;4425394;32;20009;-87
2022/03/18 03:19:59;;;;;;;;;;;;;;;3.02;59.35;101741.47;4441591;32;20314;-88
2022/03/18 03:22:24;;;;;;;;;;;;;;;3.07;59.35;101742.47;4439661;32;23616;-88
2022/03/18 03:24:49;;;;;;;;;;;;;;;3.20;59.36;101743.72;4425225;32;19999;-88
2022/03/18 03:27:15;;;;;;;;;;;;;;;3.31;59.37;101744.94;4437478;32;20034;-87
2022/03/18 03:29:40;;;;;;;;;;;;;;;3.36;59.36;101750.22;4423748;32;20047;-88
2022/03/18 03:32:05;;;;;;;;;;;;;;;3.45;59.37;101760.75;4436561;32;31609;-87
2022/03/18 03:34:32;;;;;;;;;;;;;;;3.62;59.38;101756.97;4424717;32;20013;-87
2022/03/18 03:36:57;;;;;;;;;;;;;;;3.68;59.38;101758.84;4438936;32;19982;-86
2022/03/18 03:39:23;;;;;;;;;;;;;;;3.64;59.38;101769.91;4438354;32;22736;-86
2022/03/18 03:41:48;;;;;;;;;;;;;;;3.76;59.39;101770.22;4424828;32;19997;-86
2022/03/18 03:44:13;;;;;;;;;;;;;;;3.75;59.38;101777.91;4438396;32;21203;-86
2022/03/18 03:46:38;;;;;;;;;;;;;;;3.88;59.39;101775.72;4424667;32;19969;-86
2022/03/18 03:49:04;;;;;;;;;;;;;;;3.99;59.41;101778.59;4438927;32;20028;-85
2022/03/18 03:51:29;;;;;;;;;;;;;;;3.95;59.40;101780.22;4438843;32;19978;-85
2022/03/18 03:53:54;;;;;;;;;;;;;;;3.99;59.40;101782.03;4425203;32;20054;-85
2022/03/18 03:56:20;;;;;;;;;;;;;;;4.01;59.40;101788.09;4436866;32;25280;-85
2022/03/18 03:58:46;;;;;;;;;;;;;;;3.98;59.41;101784.56;4424700;32;19986;-85
2022/03/18 04:01:11;;;;;;;;;;;;;;;4.18;59.41;101788.56;4437653;32;20026;-85
2022/03/18 04:03:36;;;;;;;;;;;;;;;4.22;59.41;101794.66;4424398;32;19977;-85
2022/03/18 04:06:01;;;;;;;;;;;;;;;4.19;59.41;101802.31;4424427;32;20254;-85
2022/03/18 04:08:27;;;;;;;;;;;;;;;4.14;59.41;101798.75;4411563;32;19993;-85
2022/03/18 04:10:52;;;;;;;;;;;;;;;4.25;59.41;101800.78;4438713;32;19989;-85
2022/03/18 04:13:17;;;;;;;;;;;;;;;4.23;59.42;101804.16;4440600;32;19990;-85
2022/03/18 04:15:43;;;;;;;;;;;;;;;4.22;59.42;101798.12;4424295;32;19993;-85
2022/03/18 04:18:08;;;;;;;;;;;;;;;4.18;59.41;101806.59;4438533;32;19970;-85
2022/03/18 04:20:33;;;;;;;;;;;;;;;4.23;59.42;101809.31;4438416;32;20361;-85
2022/03/18 04:22:59;;;;;;;;;;;;;;;4.32;59.41;101807.84;4425425;32;19989;-86
2022/03/18 04:25:24;;;;;;;;;;;;;;;4.33;59.42;101811.31;4439640;32;20619;-85
2022/03/18 04:27:49;;;;;;;;;;;;;;;4.32;59.41;101822.47;4438539;32;20005;-85
2022/03/18 04:30:14;;;;;;;;;;;;;;;4.30;59.42;101821.53;4423773;32;23444;-86
2022/03/18 04:32:40;;;;;;;;;;;;;;;4.32;59.42;101818.16;4438433;32;20007;-85
2022/03/18 04:35:05;;;;;;;;;;;;;;;4.38;59.42;101824.31;4438842;32;19978;-85
2022/03/18 04:37:31;;;;;;;;;;;;;;;4.32;59.41;101825.91;4424270;32;19999;-85
2022/03/18 04:39:56;;;;;;;;;;;;;;;4.33;59.42;101821.62;4423687;32;19993;-85
2022/03/18 04:42:21;;;;;;;;;;;;;;;4.46;59.43;101823.66;4439205;32;19986;-85
2022/03/18 04:44:46;;;;;;;;;;;;;;;4.48;59.43;101834.91;4438599;32;19989;-85
2022/03/18 04:47:12;;;;;;;;;;;;;;;4.56;59.43;101833.41;4426069;32;19993;-86
2022/03/18 04:49:37;;;;;;;;;;;;;;;4.54;59.43;101836.78;4426195;32;20035;-86
2022/03/18 04:52:03;;;;;;;;;;;;;;;4.59;59.43;101840.34;4438502;32;20282;-86
2022/03/18 04:54:28;;;;;;;;;;;;;;;4.61;59.44;101846.41;4442638;32;20003;-85
2022/03/18 04:59:37;;;;;;;;;;;;;;;4.65;59.44;101850.81;4441395;32;20007;-84
2022/03/18 05:02:02;;;;;;;;;;;;;;;4.80;59.45;101851.22;4439673;32;19978;-86
2022/03/18 05:04:28;;;;;;;;;;;;;;;4.83;59.44;101855.56;4439939;32;19973;-86
2022/03/18 05:06:53;;;;;;;;;;;;;;;4.85;59.44;101864.22;4425368;32;20008;-86
2022/03/18 05:09:18;;;;;;;;;;;;;;;4.85;59.44;101866.81;4439892;32;19984;-86
2022/03/18 05:11:43;;;;;;;;;;;;;;;4.80;59.45;101865.81;4425379;32;28000;-85
2022/03/18 05:14:08;;;;;;;;;;;;;;;4.76;59.44;101870.03;4425652;32;26960;-86
2022/03/18 05:16:34;;;;;;;;;;;;;;;4.82;59.45;101870.19;4425728;32;20044;-87
2022/03/18 05:18:59;;;;;;;;;;;;;;;4.95;59.46;101871.34;4438815;32;20009;-87
2022/03/18 05:21:24;;;;;;;;;;;;;;;4.94;59.46;101874.75;4438066;32;20029;-88
2022/03/18 05:23:49;;;;;;;;;;;;;;;5.03;59.46;101880.16;4437411;32;34648;-85
2022/03/18 05:26:15;;;;;;;;;;;;;;;5.02;59.46;101872.41;4438509;32;19994;-86
2022/03/18 05:28:41;;;;;;;;;;;;;;;5.10;59.47;101882.06;4427559;32;20046;-85
2022/03/18 05:31:06;;;;;;;;;;;;;;;5.17;59.47;101883.06;4438395;32;20033;-85
2022/03/18 05:33:32;;;;;;;;;;;;;;;5.21;59.47;101885.78;4437376;32;20334;-84
2022/03/18 05:35:57;;;;;;;;;;;;;;;5.31;59.47;101888.56;4424471;32;29302;-83
2022/03/18 05:38:22;;;;;;;;;;;;;;;5.33;59.48;101887.78;4439289;32;20216;-84
2022/03/18 05:40:47;;;;;;;;;;;;;;;5.27;59.48;101894.50;4439086;32;19993;-84
2022/03/18 05:43:13;;;;;;;;;;;;;;;5.32;59.48;101893.78;4425165;32;20307;-84
2022/03/18 05:45:38;;;;;;;;;;;;;;;5.34;59.48;101894.69;4439075;32;20028;-83
2022/03/18 05:48:06;;;;;;;;;;;;;;;5.32;59.48;101896.34;4425288;32;20034;-84
2022/03/18 05:50:32;;;;;;;;;;;;;;;5.34;59.48;101901.56;4425502;32;20232;-85
2022/03/18 05:52:57;;;;;;;;;;;;;;;5.19;59.47;101904.63;4424661;32;19996;-83
2022/03/18 05:55:22;;;;;;;;;;;;;;;5.43;59.48;101906.94;4438995;32;19989;-84
2022/03/18 05:57:47;;;;;;;;;;;;;;;5.44;59.48;101906.09;4425195;32;20015;-84
2022/03/18 06:00:14;;;;;;;;;;;;;;;5.45;59.48;101906.16;4438824;32;20303;-84
2022/03/18 06:02:40;;;;;;;;;;;;;;;5.51;59.49;101919.22;4439148;32;19974;-84
2022/03/18 06:05:06;;;;;;;;;;;;;;;5.62;59.50;101924.59;4425334;32;20044;-84
2022/03/18 06:07:31;;;;;;;;;;;;;;;5.69;59.50;101925.63;4438851;32;20030;-84
2022/03/18 06:12:41;;;;;;;;;;;;;;;5.61;59.49;101922.00;4439193;32;20031;-86
2022/03/18 06:15:06;;;;;;;;;;;;;;;5.86;59.51;101934.63;4437653;32;20005;-86
2022/03/18 06:17:31;;;;;;;;;;;;;;;5.90;59.52;101923.53;4437830;32;20016;-87
2022/03/18 06:19:57;;;;;;;;;;;;;;;5.81;59.50;101924.19;4437441;32;20015;-88
2022/03/18 06:22:22;;;;;;;;;;;;;;;5.91;59.52;101929.56;4437006;32;19981;-87
2022/03/18 06:24:47;;;;;;;;;;;;;;;5.90;59.51;101933.00;4424400;32;20043;-88
2022/03/18 06:27:12;;;;;;;;;;;;;;;5.98;59.51;101941.81;4424781;32;20001;-88
2022/03/18 06:29:39;;;;;;;;;;;;;;;6.08;59.52;101936.88;4424890;32;20001;-88
2022/03/18 06:32:05;;;;;;;;;;;;;;;6.12;59.52;101933.50;4437807;32;20272;-87
2022/03/18 06:34:30;;;;;;;;;;;;;;;6.12;59.52;101937.78;4437596;32;20408;-88
2022/03/18 06:36:57;;;;;;;;;;;;;;;6.23;59.53;101951.84;4424681;32;20022;-87
2022/03/18 06:39:24;;;;;;;;;;;;;;;6.19;59.52;101946.56;4425189;32;19999;-87
2022/03/18 06:41:50;;;;;;;;;;;;;;;6.29;59.54;101951.97;4439110;32;19973;-87
2022/03/18 06:44:15;;;;;;;;;;;;;;;6.39;59.54;101948.75;4424719;32;20028;-87
2022/03/18 06:46:40;;;;;;;;;;;;;;;6.51;59.55;101953.28;4437622;32;20266;-87
2022/03/18 06:49:05;;;;;;;;;;;;;;;6.47;59.54;101956.63;4437545;32;19996;-87
2022/03/18 06:51:31;;;;;;;;;;;;;;;6.52;59.55;101952.44;4437451;32;20008;-87
2022/03/18 06:53:56;;;;;;;;;;;;;;;6.60;59.55;101956.03;4437340;32;20087;-87
2022/03/18 06:56:21;;;;;;;;;;;;;;;6.71;59.55;101958.84;4437687;32;20043;-87
2022/03/18 06:58:47;;;;;;;;;;;;;;;6.62;59.55;101956.06;4424848;32;20000;-87
2022/03/18 07:01:12;;;;;;;;;;;;;;;6.66;59.56;101961.34;4424647;32;19999;-87
2022/03/18 07:03:37;;;;;;;;;;;;;;;6.68;59.56;101966.53;4424704;32;20318;-87
2022/03/18 07:06:02;;;;;;;;;;;;;;;6.66;59.56;101966.53;4424673;32;19981;-87
2022/03/18 07:08:28;;;;;;;;;;;;;;;6.86;59.56;101972.06;4424479;32;20017;-87
2022/03/18 07:10:53;;;;;;;;;;;;;;;6.67;59.56;101976.03;4424940;32;19977;-87
2022/03/18 07:13:19;;;;;;;;;;;;;;;6.71;59.55;101972.66;4424594;32;20008;-87
2022/03/18 07:15:44;;;;;;;;;;;;;;;6.74;59.56;101975.28;4424923;32;20340;-87
2022/03/18 07:18:09;;;;;;;;;;;;;;;6.95;59.57;101977.41;4438920;32;19986;-87
2022/03/18 07:20:36;;;;;;;;;;;;;;;7.11;59.58;101975.97;4424653;32;20044;-85
2022/03/18 07:23:04;;;;;;;;;;;;;;;7.05;59.58;101979.31;4424809;32;20183;-86
2022/03/18 07:25:30;;;;;;;;;;;;;;;7.21;59.58;101979.59;4424654;32;20028;-87
2022/03/18 07:27:55;;;;;;;;;;;;;;;7.37;59.60;101976.44;4424918;32;20001;-86
2022/03/18 07:30:20;;;;;;;;;;;;;;;7.47;59.60;101983.50;4438891;32;19962;-86
2022/03/18 07:32:45;;;;;;;;;;;;;;;7.39;59.60;101993.75;4438783;32;20011;-87
2022/03/18 07:35:11;;;;;;;;;;;;;;;7.61;59.60;101999.28;4424853;32;20031;-86
2022/03/18 07:37:36;;;;;;;;;;;;;;;7.58;59.60;102001.81;4424717;32;19988;-87
2022/03/18 07:40:02;;;;;;;;;;;;;;;7.62;59.61;101996.72;4438615;32;19985;-86
2022/03/18 07:42:27;;;;;;;;;;;;;;;7.68;59.61;101998.53;4437430;32;19993;-86
2022/03/18 07:44:52;;;;;;;;;;;;;;;7.70;59.61;102008.06;4438826;32;20334;-86
2022/03/18 07:47:17;;;;;;;;;;;;;;;7.61;59.60;102007.06;4424739;32;19996;-87
2022/03/18 07:49:43;;;;;;;;;;;;;;;7.77;59.62;102019.38;4438695;32;20005;-87
2022/03/18 07:52:08;;;;;;;;;;;;;;;7.90;59.62;102017.88;4438282;32;20015;-86
2022/03/18 07:54:33;;;;;;;;;;;;;;;7.82;59.62;102022.09;4421879;32;19996;-87
2022/03/18 07:56:58;;;;;;;;;;;;;;;7.83;59.62;102029.00;4409263;32;20294;-87
2022/03/18 07:59:23;;;;;;;;;;;;;;;7.82;59.62;102032.44;4408633;32;30677;-86
2022/03/18 08:01:49;;;;;;;;;;;;;;;7.93;59.63;102034.34;4408873;32;21907;-87
2022/03/18 08:04:14;;;;;;;;;;;;;;;7.91;59.62;102027.41;4409123;32;20285;-87
2022/03/18 08:06:39;;;;;;;;;;;;;;;7.97;59.62;102024.88;4409164;32;19996;-87
2022/03/18 08:09:05;;;;;;;;;;;;;;;7.82;59.62;102035.03;4409290;32;20323;-86
2022/03/18 08:11:30;;;;;;;;;;;;;;;7.96;59.63;102030.91;4409092;32;20004;-86
2022/03/18 08:13:55;;;;;;;;;;;;;;;8.13;59.64;102029.47;4409395;32;20025;-86
2022/03/18 08:16:22;;;;;;;;;;;;;;;8.27;59.64;102027.03;4407808;32;29704;-86
2022/03/18 08:18:47;;;;;;;;;;;;;;;8.34;59.65;102034.13;4409301;32;19978;-86
2022/03/18 08:21:14;;;;;;;;;;;;;;;8.49;59.66;102038.62;4408871;32;20035;-86
2022/03/18 08:23:39;;;;;;;;;;;;;;;8.58;59.66;102044.81;4396326;32;19998;-86
2022/03/18 08:26:05;;;;;;;;;;;;;;;8.70;59.67;102040.63;4408800;32;20523;-86
2022/03/18 08:28:30;;;;;;;;;;;;;;;8.88;59.67;102041.72;4396351;32;20276;-86
2022/03/18 08:30:55;;;;;;;;;;;;;;;8.97;59.69;102037.47;4408912;32;19993;-87
2022/03/18 08:33:23;;;;;;;;;;;;;;;9.13;59.69;102047.19;4408774;32;19992;-86
2022/03/18 08:35:49;;;;;;;;;;;;;;;9.33;59.70;102045.66;4409000;32;19986;-86
2022/03/18 08:38:14;;;;;;;;;;;;;;;9.27;59.70;102052.53;4408526;32;19982;-86
2022/03/18 08:40:39;;;;;;;;;;;;;;;9.37;59.71;102054.34;4408740;32;19990;-86
2022/03/18 08:43:09;;;;;;;;;;;;;;;9.28;59.71;102057.75;4407923;32;29951;-86
2022/03/18 08:45:34;;;;;;;;;;;;;;;9.35;59.71;102050.87;4408833;32;19977;-86
2022/03/18 08:47:59;;;;;;;;;;;;;;;9.41;59.70;102059.59;4422758;32;19992;-86
2022/03/18 08:50:25;;;;;;;;;;;;;;;9.43;59.72;102064.81;4422575;32;20006;-86
2022/03/18 08:52:51;;;;;;;;;;;;;;;9.39;59.71;102061.31;4408573;32;20018;-86
2022/03/18 08:55:16;;;;;;;;;;;;;;;9.70;59.72;102056.38;4407919;32;20330;-86
2022/03/18 08:57:41;;;;;;;;;;;;;;;9.79;59.74;102065.16;4424006;32;20035;-86
2022/03/18 09:00:08;;;;;;;;;;;;;;;9.98;59.74;102065.28;4423728;32;19986;-86
2022/03/18 09:02:34;;;;;;;;;;;;;;;10.07;59.74;102071.41;4423787;32;20274;-86
2022/03/18 09:04:59;;;;;;;;;;;;;;;10.25;59.76;102060.31;4423922;32;19982;-86
2022/03/18 09:07:26;;;;;;;;;;;;;;;10.43;59.76;102075.19;4437907;32;20046;-86
2022/03/18 09:09:51;;;;;;;;;;;;;;;10.48;59.77;102068.25;4437833;32;19993;-86
2022/03/18 09:12:17;;;;;;;;;;;;;;;10.62;59.78;102071.78;4423683;32;19977;-86
2022/03/18 09:14:42;;;;;;;;;;;;;;;10.74;59.78;102066.63;4437675;32;20486;-86
2022/03/18 09:17:08;;;;;;;;;;;;;;;10.82;59.79;102071.88;4423372;32;20036;-86
2022/03/18 09:19:37;;;;;;;;;;;;;;;10.87;59.79;102071.88;4423451;32;20625;-86
2022/03/18 09:22:02;;;;;;;;;;;;;;;10.95;59.80;102072.81;4423725;32;20041;-86
2022/03/18 09:24:30;;;;;;;;;;;;;;;11.13;59.81;102072.88;4423580;32;20023;-86
2022/03/18 09:26:55;;;;;;;;;;;;;;;11.24;59.81;102075.50;4423865;32;19981;-86
2022/03/18 09:29:24;;;;;;;;;;;;;;;11.24;59.81;102083.31;4424853;32;20298;-86
2022/03/18 09:31:50;;;;;;;;;;;;;;;11.25;59.81;102074.63;4425788;32;20095;-86
2022/03/18 09:34:15;;;;;;;;;;;;;;;11.23;59.81;102082.44;4439796;32;20028;-86
2022/03/18 09:36:41;;;;;;;;;;;;;;;11.50;59.83;102076.41;4425694;32;19984;-87
2022/03/18 09:39:06;;;;;;;;;;;;;;;11.57;59.83;102077.28;4425764;32;20001;-86
2022/03/18 09:41:31;;;;;;;;;;;;;;;11.53;59.83;102073.78;4412432;32;20042;-86
2022/03/18 09:43:56;;;;;;;;;;;;;;;11.64;59.84;102081.66;4425382;32;19996;-86
2022/03/18 09:46:22;;;;;;;;;;;;;;;11.87;59.85;102077.34;4439830;32;19992;-85
2022/03/18 09:48:47;;;;;;;;;;;;;;;11.85;59.85;102079.09;4425702;32;19985;-86
2022/03/18 09:51:12;;;;;;;;;;;;;;;12.18;59.87;102072.94;4425573;32;19989;-87
2022/03/18 09:53:37;;;;;;;;;;;;;;;12.35;59.88;102070.31;4425097;32;20001;-87
2022/03/18 09:56:03;;;;;;;;;;;;;;;12.50;59.88;102066.78;4425524;32;19970;-86
2022/03/18 09:58:28;;;;;;;;;;;;;;;12.62;59.89;102069.38;4425428;32;20254;-86
2022/03/18 10:00:58;;;;;;;;;;;;;;;12.40;59.88;102079.00;4424885;32;21765;-86
2022/03/18 10:03:23;;;;;;;;;;;;;;;12.36;59.88;102077.28;4439402;32;19977;-87
2022/03/18 10:05:52;;;;;;;;;;;;;;;12.47;59.88;102078.09;4439602;32;20027;-86
2022/03/18 10:08:17;;;;;;;;;;;;;;;12.65;59.88;102074.56;4425785;32;19981;-87
2022/03/18 10:10:43;;;;;;;;;;;;;;;12.82;59.90;102080.63;4439399;32;20054;-87
2022/03/18 10:13:09;;;;;;;;;;;;;;;12.81;59.91;102080.63;4439270;32;19970;-86
2022/03/18 10:15:34;;;;;;;;;;;;;;;12.72;59.89;102089.34;4438029;32;20321;-86
2022/03/18 10:18:01;;;;;;;;;;;;;;;12.72;59.89;102081.50;4412472;32;20005;-86
2022/03/18 10:20:27;;;;;;;;;;;;;;;12.81;59.91;102078.88;4412497;32;19988;-86
2022/03/18 10:22:53;;;;;;;;;;;;;;;13.05;59.92;102075.28;4425232;32;19999;-86
2022/03/18 10:25:37;;;;;;;;;;;;;;;13.06;59.92;102082.25;4439279;32;19974;-86
2022/03/18 10:28:04;;;;;;;;;;;;;;;13.13;59.92;102083.09;4439492;32;20004;-86
2022/03/18 10:30:31;;;;;;;;;;;;;;;13.11;59.92;102079.59;4439443;32;20029;-86
2022/03/18 10:32:56;;;;;;;;;;;;;;;13.02;59.91;102077.91;4439414;32;20036;-86
2022/03/18 10:38:25;;;;;;;;;;;;;;;12.93;59.91;102079.69;4427290;32;19992;-86
2022/03/18 10:40:52;;;;;;;;;;;;;;;12.81;59.91;102078.00;4437500;32;20372;-86
2022/03/18 10:43:17;;;;;;;;;;;;;;;12.97;59.91;102079.66;4425275;32;19985;-86
2022/03/18 10:45:57;;;;;;;;;;;;;;;12.93;59.91;102085.78;4424940;32;20487;-86
2022/03/18 10:48:23;;;;;;;;;;;;;;;12.89;59.91;102079.72;4439207;32;19994;-87
2022/03/18 10:50:48;;;;;;;;;;;;;;;12.90;59.91;102080.56;4439165;32;20321;-87
2022/03/18 10:53:13;;;;;;;;;;;;;;;12.71;59.89;102085.00;4424811;32;20001;-86
2022/03/18 10:55:39;;;;;;;;;;;;;;;12.62;59.89;102085.03;4424666;32;20051;-87
2022/03/18 10:58:12;;;;;;;;;;;;;;;12.85;59.90;102080.59;4425071;32;19989;-87
2022/03/18 11:00:38;;;;;;;;;;;;;;;12.84;59.90;102072.78;4424809;32;20305;-87
2022/03/18 11:03:03;;;;;;;;;;;;;;;12.83;59.90;102082.34;4424882;32;19988;-86
2022/03/18 11:05:39;;;;;;;;;;;;;;;12.83;59.91;102076.25;4425001;32;19985;-86
2022/03/18 11:08:05;;;;;;;;;;;;;;;12.83;59.90;102079.75;4424900;32;20370;-87
2022/03/18 11:13:14;;;;;;;;;;;;;;;12.76;59.91;102074.53;4439098;32;20302;-87
2022/03/18 11:15:42;;;;;;;;;;;;;;;12.86;59.90;102079.72;4439027;32;19978;-86
2022/03/18 11:18:11;;;;;;;;;;;;;;;12.89;59.91;102078.84;4424885;32;20354;-86
2022/03/18 11:20:42;;;;;;;;;;;;;;;12.88;59.92;102074.50;4424927;32;20048;-87
2022/03/18 11:23:08;;;;;;;;;;;;;;;12.89;59.91;102069.25;4425418;32;20479;-86
2022/03/18 11:25:34;;;;;;;;;;;;;;;12.91;59.91;102066.63;4424702;32;20001;-86
2022/03/18 11:28:00;;;;;;;;;;;;;;;13.01;59.92;102076.19;4424696;32;20056;-87
2022/03/18 11:30:26;;;;;;;;;;;;;;;13.23;59.93;102068.22;4424415;32;20669;-87
2022/03/18 11:33:06;;;;;;;;;;;;;;;13.50;59.95;102068.94;4424730;32;19973;-86
2022/03/18 11:35:52;;;;;;;;;;;;;;;13.38;59.94;102063.78;4438897;32;19969;-87
2022/03/18 11:38:46;;;;;;;;;;;;;;;13.39;59.94;102069.88;4438891;32;20005;-87
2022/03/18 11:41:12;;;;;;;;;;;;;;;13.33;59.93;102062.06;4424639;32;20007;-86
2022/03/18 11:43:43;;;;;;;;;;;;;;;13.30;59.93;102064.72;4411764;32;19990;-86
2022/03/18 11:46:17;;;;;;;;;;;;;;;13.37;59.93;102062.03;4438764;32;19988;-87
2022/03/18 11:48:46;;;;;;;;;;;;;;;13.40;59.93;102051.56;4438833;32;20330;-87
2022/03/18 11:51:21;;;;;;;;;;;;;;;13.54;59.95;102061.94;4437940;32;19989;-87
2022/03/18 11:53:47;;;;;;;;;;;;;;;13.38;59.94;102055.06;4438477;32;20371;-86
2022/03/18 11:56:13;;;;;;;;;;;;;;;13.21;59.93;102056.03;4424704;32;20499;-86
2022/03/18 11:58:38;;;;;;;;;;;;;;;13.13;59.93;102056.94;4437215;32;20012;-86
2022/03/18 12:01:04;;;;;;;;;;;;;;;13.00;59.92;102060.47;4438563;32;19992;-87
2022/03/18 12:03:33;;;;;;;;;;;;;;;13.06;59.93;102055.25;4438666;32;20072;-87
2022/03/18 12:05:59;;;;;;;;;;;;;;;13.25;59.93;102050.78;4424431;32;19981;-87
2022/03/18 12:08:44;;;;;;;;;;;;;;;13.42;59.94;102046.31;4424675;32;20000;-87
2022/03/18 12:11:29;;;;;;;;;;;;;;;13.42;59.94;102046.31;4438640;32;20004;-87
2022/03/18 12:13:54;;;;;;;;;;;;;;;13.34;59.94;102041.13;4438345;32;19992;-87
2022/03/18 12:16:20;;;;;;;;;;;;;;;13.52;59.95;102038.41;4438947;32;19993;-86
2022/03/18 12:18:46;;;;;;;;;;;;;;;13.47;59.94;102036.66;4438883;32;20021;-86
2022/03/18 12:21:11;;;;;;;;;;;;;;;13.68;59.95;102038.25;4438626;32;20302;-86
2022/03/18 12:23:37;;;;;;;;;;;;;;;13.63;59.95;102032.19;4424561;32;19993;-86
2022/03/18 12:26:08;;;;;;;;;;;;;;;13.73;59.96;102029.50;4438720;32;19980;-87
2022/03/18 12:28:45;;;;;;;;;;;;;;;13.88;59.97;102023.25;4438615;32;19993;-87
2022/03/18 12:31:14;;;;;;;;;;;;;;;14.00;59.97;102022.28;4438646;32;20001;-86
2022/03/18 12:33:39;;;;;;;;;;;;;;;14.07;59.97;102014.34;4424280;32;20043;-86
2022/03/18 12:36:05;;;;;;;;;;;;;;;14.20;59.98;102011.59;4424128;32;20044;-87
2022/03/18 12:38:31;;;;;;;;;;;;;;;14.21;59.98;102011.59;4423807;32;20357;-87
2022/03/18 12:40:57;;;;;;;;;;;;;;;14.24;59.97;102011.53;4408635;32;20349;-86
2022/03/18 12:43:24;;;;;;;;;;;;;;;14.39;60.00;102003.50;4408773;32;19982;-87
2022/03/18 12:45:49;;;;;;;;;;;;;;;14.41;60.00;102003.47;4422869;32;19978;-87
2022/03/18 12:48:18;;;;;;;;;;;;;;;14.35;59.99;102003.53;4408764;32;20014;-86
2022/03/18 12:50:44;;;;;;;;;;;;;;;14.29;59.99;101995.78;4408856;32;20044;-87
2022/03/18 12:53:15;;;;;;;;;;;;;;;13.89;59.97;101997.94;4408375;32;20041;-87
2022/03/18 12:55:41;;;;;;;;;;;;;;;13.90;59.97;102003.16;4422620;32;19975;-86
2022/03/18 12:58:06;;;;;;;;;;;;;;;14.02;59.97;101996.94;4408597;32;20008;-87
2022/03/18 13:00:42;;;;;;;;;;;;;;;13.94;59.97;101994.38;4408395;32;19979;-87
2022/03/18 13:03:08;;;;;;;;;;;;;;;13.95;59.97;101992.63;4409484;32;19992;-86